Time;durP1;ratioP1;P1;durP2;ratioP2;P2;SDS_P1;SDS_P2;PMS_P1;PMS_P2;Temp;Humidity;BMP_temperature;BMP_pressure;BME280_temperature;BME280_humidity;BME280_pressure;Samples;Min_cycle;Max_cycle;Signal;HPM_P1;HPM_P2
2021/07/28 00:02:07;;;;;;;7.12;5.33;;;;;;;24.74;75.32;101017.14;1748838;81;21130;-85
2021/07/28 00:04:39;;;;;;;10.95;5.45;;;;;;;24.73;75.69;101016.77;1749381;80;21040;-84
2021/07/28 00:07:08;;;;;;;6.67;5.72;;;;;;;24.72;75.91;101010.41;1749391;82;21103;-83
2021/07/28 00:09:35;;;;;;;13.78;6.47;;;;;;;24.71;76.05;101010.57;1733335;81;21021;-83
2021/07/28 00:12:05;;;;;;;12.25;5.83;;;;;;;24.67;76.10;101015.98;1752171;81;20949;-83
2021/07/28 00:14:32;;;;;;;18.40;6.25;;;;;;;24.66;76.00;101013.72;1752678;81;21060;-84
2021/07/28 00:17:00;;;;;;;10.45;6.00;;;;;;;24.67;75.83;101013.23;1756706;81;21510;-83
2021/07/28 00:19:32;;;;;;;8.68;5.67;;;;;;;24.64;75.56;101006.63;1748326;81;21020;-83
2021/07/28 00:24:41;;;;;;;8.65;5.60;;;;;;;24.65;74.92;101011.11;1745038;82;21745;-82
2021/07/28 00:27:08;;;;;;;11.80;6.17;;;;;;;24.63;74.52;101009.89;1745038;82;21508;-83
2021/07/28 00:29:37;;;;;;;10.13;5.37;;;;;;;24.59;74.33;101010.66;1745138;82;21556;-82
2021/07/28 00:32:05;;;;;;;8.15;5.70;;;;;;;24.58;73.95;101010.83;1744936;82;20976;-83
2021/07/28 00:34:32;;;;;;;10.70;5.60;;;;;;;24.58;73.57;101013.05;1745056;82;21465;-82
2021/07/28 00:36:59;;;;;;;11.33;5.75;;;;;;;24.59;73.12;101005.19;1748000;81;21450;-82
2021/07/28 00:39:26;;;;;;;7.53;5.70;;;;;;;24.59;72.61;101005.19;1751516;81;21049;-82
2021/07/28 00:41:55;;;;;;;8.50;5.28;;;;;;;24.60;72.22;101003.33;1745388;82;21080;-83
2021/07/28 00:44:22;;;;;;;12.05;5.67;;;;;;;24.63;71.81;101000.79;1758102;81;21041;-82
2021/07/28 00:46:49;;;;;;;14.58;5.30;;;;;;;24.62;71.49;101006.80;1741927;81;21037;-85
2021/07/28 00:49:16;;;;;;;12.00;5.60;;;;;;;24.61;71.55;101007.80;1751089;81;21063;-85
2021/07/28 00:51:43;;;;;;;12.28;5.70;;;;;;;24.64;71.83;101007.52;1742955;81;21027;-83
2021/07/28 00:54:10;;;;;;;14.43;5.62;;;;;;;24.65;72.04;101001.52;1718988;81;21113;-85
2021/07/28 00:56:38;;;;;;;9.18;5.80;;;;;;;24.65;72.56;100998.28;1749862;81;21096;-85
2021/07/28 00:59:04;;;;;;;10.18;5.67;;;;;;;24.70;72.67;101001.46;1753822;81;22375;-83
2021/07/28 01:01:31;;;;;;;10.48;5.95;;;;;;;24.71;72.70;101003.20;1726918;81;21440;-83
2021/07/28 01:03:59;;;;;;;10.50;5.95;;;;;;;24.70;72.55;100998.72;1745130;81;21644;-83
2021/07/28 01:06:26;;;;;;;12.85;5.25;;;;;;;24.68;72.66;100995.26;1733263;81;21067;-85
2021/07/28 01:08:53;;;;;;;9.53;5.58;;;;;;;24.66;72.63;100995.91;1750417;80;21386;-85
2021/07/28 01:11:24;;;;;;;9.65;5.42;;;;;;;24.64;72.45;100998.41;1756677;80;21076;-85
2021/07/28 01:13:51;;;;;;;12.20;5.72;;;;;;;24.61;72.67;101000.42;1752944;80;21033;-84
2021/07/28 01:16:21;;;;;;;11.95;5.70;;;;;;;24.60;72.57;101001.44;1759784;80;20945;-84
2021/07/28 01:18:48;;;;;;;9.48;5.78;;;;;;;24.59;72.76;100991.48;1745362;81;21053;-82
2021/07/28 01:21:16;;;;;;;9.30;5.15;;;;;;;24.57;72.57;100990.75;1781826;80;20995;-82
2021/07/28 01:23:44;;;;;;;9.68;6.22;;;;;;;24.49;72.81;100994.71;1766346;80;21054;-83
2021/07/28 01:26:11;;;;;;;11.05;5.70;;;;;;;24.46;73.01;100994.99;1763176;80;21721;-83
2021/07/28 01:28:38;;;;;;;13.08;5.67;;;;;;;24.38;73.13;100991.57;1761530;81;21023;-83
2021/07/28 01:31:11;;;;;;;12.65;6.10;;;;;;;24.30;73.44;100989.52;1778277;80;21024;-83
2021/07/28 01:33:41;;;;;;;11.93;5.65;;;;;;;24.26;73.68;100983.95;1742561;82;21037;-83
2021/07/28 01:36:13;;;;;;;12.05;5.75;;;;;;;24.24;73.80;100983.72;1762779;80;21517;-83
2021/07/28 01:38:40;;;;;;;10.68;5.45;;;;;;;24.21;73.86;100980.77;1763020;81;21536;-84
2021/07/28 01:41:07;;;;;;;10.70;5.03;;;;;;;24.16;73.95;100980.29;1745091;82;21005;-84
2021/07/28 01:43:35;;;;;;;8.48;4.87;;;;;;;24.16;73.95;100981.66;1747936;81;21037;-84
2021/07/28 01:46:03;;;;;;;10.85;5.55;;;;;;;24.15;74.04;100979.92;1788016;80;20949;-84
2021/07/28 01:48:31;;;;;;;18.42;5.60;;;;;;;24.18;74.07;100982.39;1788024;80;21496;-85
2021/07/28 01:50:59;;;;;;;8.35;5.17;;;;;;;24.21;74.17;100986.25;1769596;80;21148;-84
2021/07/28 01:53:26;;;;;;;14.10;5.75;;;;;;;24.24;74.04;100987.34;1748322;80;21010;-84
2021/07/28 01:55:54;;;;;;;10.18;5.40;;;;;;;24.22;74.14;100985.23;1753250;80;21006;-84
2021/07/28 01:58:21;;;;;;;9.75;5.00;;;;;;;24.20;74.47;100982.27;1761315;81;21487;-85
2021/07/28 02:00:48;;;;;;;12.90;5.00;;;;;;;24.16;74.58;100984.40;1761533;81;21012;-85
2021/07/28 02:03:15;;;;;;;9.90;4.85;;;;;;;24.14;74.70;100980.93;1763390;80;21734;-85
2021/07/28 02:05:43;;;;;;;7.90;4.87;;;;;;;24.12;74.67;100980.20;1771581;80;21470;-85
2021/07/28 02:08:15;;;;;;;9.45;5.22;;;;;;;24.12;74.54;100982.94;1743149;80;21544;-85
2021/07/28 02:10:46;;;;;;;9.20;4.97;;;;;;;24.13;74.42;100977.83;1762612;80;20984;-85
2021/07/28 02:13:15;;;;;;;7.78;4.80;;;;;;;24.16;74.39;100985.77;1761254;81;21067;-85
2021/07/28 02:15:42;;;;;;;8.15;5.47;;;;;;;24.18;73.95;100985.13;1765207;80;21174;-85
2021/07/28 02:18:10;;;;;;;10.60;5.47;;;;;;;24.20;73.76;100987.22;1770943;80;21060;-85
2021/07/28 02:20:44;;;;;;;9.25;5.00;;;;;;;24.19;73.79;100985.48;1756998;80;21100;-84
2021/07/28 02:23:11;;;;;;;10.93;5.78;;;;;;;24.20;73.95;100991.33;1757553;80;21329;-84
2021/07/28 02:25:39;;;;;;;10.50;5.20;;;;;;;24.22;73.92;100990.72;1764368;80;21047;-85
2021/07/28 02:28:06;;;;;;;10.65;5.40;;;;;;;24.22;74.14;100987.98;1768378;80;21141;-85
2021/07/28 02:30:33;;;;;;;10.35;6.12;;;;;;;24.22;74.43;100987.09;1761156;81;21043;-84
2021/07/28 02:33:00;;;;;;;10.72;5.92;;;;;;;24.22;74.84;100986.61;1763871;80;21052;-84
2021/07/28 02:35:27;;;;;;;7.30;5.20;;;;;;;24.22;75.01;100982.98;1753390;80;21052;-84
2021/07/28 02:37:54;;;;;;;10.53;5.70;;;;;;;24.21;75.26;100982.14;1744001;81;21020;-84
2021/07/28 02:40:23;;;;;;;11.93;5.40;;;;;;;24.21;75.42;100983.51;1761804;80;21572;-84
2021/07/28 02:42:50;;;;;;;8.73;5.50;;;;;;;24.22;75.52;100983.88;1773710;80;21041;-84
2021/07/28 02:45:17;;;;;;;13.08;6.08;;;;;;;24.23;75.70;100989.72;1773814;80;21510;-84
2021/07/28 02:48:04;;;;;;;9.28;6.40;;;;;;;24.25;76.04;100989.07;1774505;79;21466;-84
2021/07/28 02:50:32;;;;;;;9.95;6.62;;;;;;;24.23;76.41;100996.56;1765312;80;21035;-85
2021/07/28 02:53:10;;;;;;;12.93;6.33;;;;;;;24.20;77.04;100987.73;1761382;81;21793;-85
2021/07/28 02:55:39;;;;;;;9.95;6.25;;;;;;;24.17;77.43;100996.60;1741341;81;20993;-85
2021/07/28 02:58:06;;;;;;;9.60;6.45;;;;;;;24.15;77.94;100993.63;1741471;80;21599;-85
2021/07/28 03:00:34;;;;;;;10.63;6.15;;;;;;;24.14;78.94;100992.77;1771004;80;21067;-85
2021/07/28 03:03:05;;;;;;;10.40;5.97;;;;;;;24.16;79.66;100994.87;1747930;80;21001;-84
2021/07/28 03:05:32;;;;;;;11.18;5.70;;;;;;;24.17;80.33;100988.87;1721538;83;21786;-84
2021/07/28 03:07:59;;;;;;;12.65;5.90;;;;;;;24.19;80.39;100986.86;1733901;81;21012;-85
2021/07/28 03:11:03;;;;;;;9.68;5.72;;;;;;;24.25;80.42;100986.33;1756634;81;21103;-86
2021/07/28 03:13:30;;;;;;;7.03;5.75;;;;;;;24.31;80.37;100987.14;1756050;81;21112;-84
2021/07/28 03:16:09;;;;;;;8.75;6.17;;;;;;;24.39;80.50;100984.20;1756012;80;21524;-84
2021/07/28 03:18:37;;;;;;;7.78;5.70;;;;;;;24.48;80.73;100980.64;1761107;80;21815;-84
2021/07/28 03:21:04;;;;;;;7.28;5.80;;;;;;;24.60;80.54;100979.51;1765211;80;20921;-85
2021/07/28 03:23:31;;;;;;;6.72;5.47;;;;;;;24.70;80.21;100966.34;1765655;80;21449;-84
2021/07/28 03:25:58;;;;;;;16.20;5.65;;;;;;;24.82;79.85;100970.71;1761563;81;21496;-84
2021/07/28 03:28:25;;;;;;;8.40;5.05;;;;;;;24.96;79.32;100974.06;1753439;81;21543;-84
2021/07/28 03:30:52;;;;;;;12.00;5.95;;;;;;;25.06;78.93;100972.17;1764800;80;21091;-85
2021/07/28 03:33:20;;;;;;;12.25;5.17;;;;;;;25.17;78.57;100970.68;1771993;80;21008;-85
2021/07/28 03:35:47;;;;;;;11.33;5.58;;;;;;;25.27;78.27;100967.05;1761911;81;21484;-85
2021/07/28 03:38:14;;;;;;;7.35;4.95;;;;;;;25.35;78.02;100959.47;1765364;80;21603;-84
2021/07/28 03:40:40;;;;;;;12.58;5.37;;;;;;;25.44;77.59;100965.48;1748238;80;21005;-84
2021/07/28 03:43:07;;;;;;;9.73;4.78;;;;;;;25.55;76.89;100960.37;1765156;80;21667;-84
2021/07/28 03:45:34;;;;;;;7.75;4.50;;;;;;;25.64;75.93;100964.08;1756112;80;20980;-85
2021/07/28 03:48:04;;;;;;;8.25;4.80;;;;;;;25.73;74.61;100968.17;1758856;80;20937;-85
2021/07/28 03:50:31;;;;;;;9.65;4.62;;;;;;;25.83;73.51;100964.55;1760672;80;21060;-85
2021/07/28 03:53:00;;;;;;;8.03;4.90;;;;;;;25.93;72.59;100965.38;1777077;80;20944;-85
2021/07/28 03:55:27;;;;;;;7.33;5.17;;;;;;;26.05;72.01;100966.06;1746492;81;21119;-85
2021/07/28 03:57:54;;;;;;;12.90;5.15;;;;;;;26.16;71.81;100962.26;1775436;79;20997;-85
2021/07/28 04:00:21;;;;;;;7.55;4.85;;;;;;;26.27;72.19;100971.73;1762736;80;20933;-86
2021/07/28 04:02:48;;;;;;;10.03;5.20;;;;;;;26.38;72.67;100969.78;1759003;80;21453;-85
2021/07/28 04:05:15;;;;;;;5.80;4.83;;;;;;;26.47;72.85;100967.51;1762581;80;21047;-85
2021/07/28 04:07:45;;;;;;;10.25;5.17;;;;;;;26.55;73.25;100959.34;1767474;80;21153;-85
2021/07/28 04:10:12;;;;;;;12.07;4.92;;;;;;;26.62;73.47;100960.09;1773094;80;21038;-86
2021/07/28 04:12:39;;;;;;;8.10;5.10;;;;;;;26.71;73.36;100960.56;1774451;80;20976;-84
2021/07/28 04:15:07;;;;;;;8.83;4.85;;;;;;;26.82;72.68;100960.32;1769661;79;20969;-85
2021/07/28 04:17:34;;;;;;;10.53;4.85;;;;;;;26.93;71.96;100964.77;1749747;79;21056;-86
2021/07/28 04:20:01;;;;;;;7.85;4.62;;;;;;;27.04;71.04;100966.42;1776721;80;21056;-86
2021/07/28 04:22:28;;;;;;;11.30;4.85;;;;;;;27.19;70.43;100960.38;1782064;80;20995;-85
2021/07/28 04:24:55;;;;;;;8.63;4.97;;;;;;;27.31;69.78;100961.88;1781760;78;20846;-85
2021/07/28 04:27:22;;;;;;;7.08;4.70;;;;;;;27.44;69.23;100963.69;1770386;80;21039;-86
2021/07/28 04:29:51;;;;;;;10.58;4.85;;;;;;;27.54;68.78;100965.00;1775863;79;21120;-86
2021/07/28 04:32:18;;;;;;;6.85;4.78;;;;;;;27.62;68.17;100965.58;1776384;80;21091;-86
2021/07/28 04:34:46;;;;;;;11.22;4.60;;;;;;;27.70;67.57;100967.00;1751464;80;21061;-85
2021/07/28 04:37:20;;;;;;;8.63;4.92;;;;;;;27.78;66.72;100965.34;1754884;80;20885;-85
2021/07/28 04:39:48;;;;;;;12.05;4.65;;;;;;;27.87;66.57;100965.73;1781848;79;20896;-85
2021/07/28 04:42:15;;;;;;;6.33;4.80;;;;;;;27.98;65.69;100964.09;1782004;78;20838;-85
2021/07/28 04:44:42;;;;;;;8.68;4.60;;;;;;;28.09;64.80;100966.20;1781653;80;21078;-86
2021/07/28 04:47:10;;;;;;;8.90;4.42;;;;;;;28.18;64.14;100961.64;1781173;78;21323;-86
2021/07/28 04:49:37;;;;;;;10.35;3.92;;;;;;;28.28;63.70;100964.61;1780448;80;20937;-86
2021/07/28 04:52:07;;;;;;;5.97;4.62;;;;;;;28.39;62.74;100969.47;1781255;80;20983;-83
2021/07/28 04:54:34;;;;;;;6.58;4.62;;;;;;;28.51;62.45;100969.52;1778867;80;20897;-84
2021/07/28 04:57:01;;;;;;;7.10;4.60;;;;;;;28.64;62.13;100970.96;1777955;79;21078;-84
2021/07/28 04:59:28;;;;;;;12.20;5.08;;;;;;;28.76;61.66;100965.45;1777464;78;21038;-85
2021/07/28 05:01:55;;;;;;;8.43;5.00;;;;;;;28.86;61.70;100960.70;1776669;78;20830;-86
2021/07/28 05:04:22;;;;;;;7.80;5.47;;;;;;;29.02;61.45;100961.74;1777632;79;20944;-86
2021/07/28 05:06:49;;;;;;;6.80;5.30;;;;;;;29.15;60.90;100966.25;1779056;80;21040;-86
2021/07/28 05:09:16;;;;;;;9.60;5.85;;;;;;;29.29;60.58;100961.06;1776221;79;21088;-86
2021/07/28 05:11:44;;;;;;;14.45;6.03;;;;;;;29.40;60.51;100966.25;1775125;80;20957;-86
2021/07/28 05:14:11;;;;;;;9.85;5.75;;;;;;;29.54;59.93;100968.02;1778835;80;20929;-86
2021/07/28 05:16:41;;;;;;;5.72;5.12;;;;;;;29.64;59.22;100967.30;1781501;80;20949;-86
2021/07/28 05:19:09;;;;;;;15.30;5.35;;;;;;;29.76;58.78;100965.57;1763616;80;21136;-86
2021/07/28 05:21:36;;;;;;;6.33;4.95;;;;;;;29.82;58.43;100961.56;1763748;80;21072;-86
2021/07/28 05:24:04;;;;;;;5.75;4.75;;;;;;;29.89;58.14;100963.10;1768854;80;20951;-86
2021/07/28 05:26:31;;;;;;;13.30;5.00;;;;;;;29.95;57.71;100973.45;1770082;80;20956;-87
2021/07/28 05:28:58;;;;;;;10.80;4.67;;;;;;;30.04;57.11;100970.71;1771919;79;21022;-86
2021/07/28 05:31:34;;;;;;;7.00;4.55;;;;;;;30.12;56.65;100968.78;1757485;80;20935;-85
2021/07/28 05:34:00;;;;;;;14.33;4.42;;;;;;;30.26;57.23;100970.45;1765942;80;22198;-86
2021/07/28 05:36:28;;;;;;;12.98;4.30;;;;;;;30.43;58.02;100969.88;1755811;80;21312;-85
2021/07/28 05:38:55;;;;;;;8.68;4.30;;;;;;;30.57;58.42;100969.09;1764556;80;21112;-84
2021/07/28 05:41:22;;;;;;;9.30;4.25;;;;;;;30.69;59.20;100972.34;1767900;79;21040;-87
2021/07/28 05:43:49;;;;;;;8.95;3.70;;;;;;;30.81;60.75;100965.87;1777925;78;21036;-86
2021/07/28 05:46:16;;;;;;;7.55;3.70;;;;;;;30.90;60.80;100959.77;1785177;79;21144;-86
2021/07/28 05:48:43;;;;;;;8.28;4.30;;;;;;;30.94;61.01;100956.13;1786786;79;21694;-85
2021/07/28 05:51:10;;;;;;;10.53;4.12;;;;;;;30.99;61.19;100959.19;1782852;79;20984;-84
2021/07/28 05:53:37;;;;;;;8.03;4.50;;;;;;;31.06;61.58;100958.81;1775729;79;21479;-86
2021/07/28 05:56:05;;;;;;;6.05;3.98;;;;;;;31.12;62.02;100950.27;1779187;79;20904;-85
2021/07/28 05:58:32;;;;;;;9.18;4.33;;;;;;;31.21;61.44;100955.25;1782160;79;21006;-87
2021/07/28 06:01:00;;;;;;;7.70;4.30;;;;;;;31.25;61.42;100944.14;1779454;79;21089;-85
2021/07/28 06:03:27;;;;;;;8.13;4.10;;;;;;;31.29;61.91;100939.43;1757697;80;20961;-86
2021/07/28 06:06:03;;;;;;;8.00;4.22;;;;;;;31.34;62.45;100940.27;1789675;80;21003;-86
2021/07/28 06:08:27;;;;;;;8.53;4.50;;;;;;;31.40;62.83;100939.51;1739645;80;21904;-87
2021/07/28 06:10:54;;;;;;;7.75;4.70;;;;;;;31.48;62.57;100939.08;1774386;79;21098;-86
2021/07/28 06:13:21;;;;;;;9.28;4.90;;;;;;;31.55;62.44;100942.30;1762407;79;21167;-86
2021/07/28 06:15:48;;;;;;;6.12;4.67;;;;;;;31.63;62.75;100938.59;1775584;79;21012;-86
2021/07/28 06:18:15;;;;;;;9.60;4.72;;;;;;;31.73;62.53;100944.73;1786722;79;20984;-86
2021/07/28 06:20:42;;;;;;;5.58;4.95;;;;;;;31.81;62.56;100942.95;1775697;79;20983;-85
2021/07/28 06:23:10;;;;;;;9.08;4.80;;;;;;;31.89;62.34;100940.08;1727220;81;21153;-86
2021/07/28 06:25:37;;;;;;;9.15;5.55;;;;;;;31.96;61.90;100938.28;1772795;79;20874;-84
2021/07/28 06:28:09;;;;;;;7.20;5.25;;;;;;;31.99;61.59;100934.25;1743195;81;20911;-84
2021/07/28 06:30:37;;;;;;;20.88;6.80;;;;;;;32.01;61.23;100944.61;1757677;80;21082;-84
2021/07/28 06:33:04;;;;;;;5.55;4.40;;;;;;;32.06;61.45;100942.66;1735312;80;21108;-83
2021/07/28 06:35:33;;;;;;;6.85;4.40;;;;;;;32.05;60.57;100943.72;1773214;79;21013;-84
2021/07/28 06:38:02;;;;;;;12.55;4.97;;;;;;;32.03;60.04;100940.28;1770469;79;21061;-88
2021/07/28 06:40:29;;;;;;;9.55;4.92;;;;;;;32.04;60.21;100938.69;1756354;79;21073;-86
2021/07/28 06:42:56;;;;;;;8.88;5.03;;;;;;;32.06;60.28;100937.12;1766120;80;21550;-87
2021/07/28 06:45:23;;;;;;;9.50;5.00;;;;;;;32.05;60.30;100927.08;1755595;79;21085;-87
2021/07/28 06:47:51;;;;;;;8.70;4.92;;;;;;;32.11;60.39;100933.23;1758761;79;21094;-86
2021/07/28 06:50:19;;;;;;;5.28;4.17;;;;;;;32.15;59.91;100933.18;1725984;81;21047;-86
2021/07/28 06:52:47;;;;;;;9.40;4.85;;;;;;;32.18;60.12;100924.50;1774650;80;21134;-85
2021/07/28 06:55:48;;;;;;;7.40;4.20;;;;;;;32.24;60.01;100930.66;1773431;81;21620;-86
2021/07/28 06:58:15;;;;;;;8.90;4.37;;;;;;;32.29;59.44;100937.86;1744386;82;21054;-86
2021/07/28 07:00:43;;;;;;;9.48;4.20;;;;;;;32.29;59.24;100930.92;1752591;80;21102;-88
2021/07/28 07:03:11;;;;;;;10.85;4.42;;;;;;;32.28;59.27;100935.30;1764782;80;21040;-87
2021/07/28 07:05:39;;;;;;;7.58;4.67;;;;;;;32.28;59.12;100932.52;1765151;79;21380;-87
2021/07/28 07:08:06;;;;;;;11.75;4.60;;;;;;;32.31;59.44;100930.75;1763213;79;21060;-87
2021/07/28 07:10:33;;;;;;;8.03;4.67;;;;;;;32.37;59.09;100933.28;1727226;81;21062;-87
2021/07/28 07:13:05;;;;;;;8.10;4.65;;;;;;;32.34;59.21;100931.77;1723261;81;21066;-87
2021/07/28 07:15:32;;;;;;;8.73;4.90;;;;;;;32.38;59.76;100928.94;1752341;80;21073;-86
2021/07/28 07:17:59;;;;;;;10.15;4.28;;;;;;;32.42;59.58;100927.48;1751047;80;21055;-87
2021/07/28 07:21:03;;;;;;;10.85;4.92;;;;;;;32.48;58.53;100930.02;1769078;79;21010;-87
2021/07/28 07:23:30;;;;;;;16.82;4.33;;;;;;;32.53;57.75;100934.45;1770623;79;21065;-87
2021/07/28 07:25:58;;;;;;;10.55;4.40;;;;;;;32.55;58.12;100935.11;1771720;79;22024;-87
2021/07/28 07:28:27;;;;;;;11.95;4.80;;;;;;;32.54;58.27;100928.38;1778291;79;21003;-87
2021/07/28 07:30:54;;;;;;;10.95;4.40;;;;;;;32.53;58.57;100927.51;1771572;79;20926;-88
2021/07/28 07:36:17;;;;;;;7.65;4.90;;;;;;;32.52;57.72;100938.28;1766594;79;21032;-85
2021/07/28 07:38:44;;;;;;;8.80;4.80;;;;;;;32.53;57.84;100934.99;1764497;79;21788;-86
2021/07/28 07:41:11;;;;;;;5.97;4.22;;;;;;;32.58;58.45;100929.70;1772971;80;21230;-86
2021/07/28 07:43:39;;;;;;;10.50;4.47;;;;;;;32.60;58.33;100926.72;1777652;79;20966;-86
2021/07/28 07:46:06;;;;;;;8.35;4.75;;;;;;;32.62;58.06;100928.80;1785407;79;21062;-87
2021/07/28 07:48:38;;;;;;;12.60;4.45;;;;;;;32.66;57.64;100942.61;1769263;79;21115;-86
2021/07/28 07:51:05;;;;;;;7.72;4.08;;;;;;;32.67;57.59;100934.61;1770082;79;21184;-87
2021/07/28 07:53:34;;;;;;;13.30;4.20;;;;;;;32.66;57.72;100930.97;1767217;79;21025;-86
2021/07/28 07:56:05;;;;;;;9.03;4.35;;;;;;;32.68;57.53;100925.23;1772206;79;21109;-87
2021/07/28 07:58:32;;;;;;;6.90;4.08;;;;;;;32.64;57.68;100937.24;1768789;79;21422;-87
2021/07/28 08:01:08;;;;;;;13.45;4.30;;;;;;;32.65;58.03;100930.63;1769886;79;20970;-86
2021/07/28 08:03:40;;;;;;;12.73;4.40;;;;;;;32.69;57.45;100932.50;1761178;79;21141;-87
2021/07/28 08:06:08;;;;;;;12.13;4.70;;;;;;;32.64;57.00;100933.62;1762925;79;21221;-86
2021/07/28 08:08:37;;;;;;;14.07;4.85;;;;;;;32.61;57.38;100929.31;1766527;79;21899;-86
2021/07/28 08:11:11;;;;;;;11.65;4.37;;;;;;;32.62;57.78;100944.06;1760934;79;21073;-86
2021/07/28 08:13:39;;;;;;;7.47;4.30;;;;;;;32.62;58.03;100932.96;1768992;79;21060;-86
2021/07/28 08:16:20;;;;;;;10.90;4.50;;;;;;;32.63;58.39;100934.68;1767673;79;21836;-86
2021/07/28 08:18:48;;;;;;;11.97;4.83;;;;;;;32.63;58.17;100933.29;1767300;79;21040;-86
2021/07/28 08:21:19;;;;;;;11.25;5.33;;;;;;;32.65;57.79;100922.85;1750137;79;20860;-87
2021/07/28 08:23:45;;;;;;;12.90;4.92;;;;;;;32.66;57.73;100914.86;1709371;81;21086;-87
2021/07/28 08:26:15;;;;;;;8.05;4.58;;;;;;;32.62;57.46;100918.54;1754414;79;20963;-86
2021/07/28 08:28:43;;;;;;;10.95;4.83;;;;;;;32.56;57.57;100920.17;1763279;79;21135;-87
2021/07/28 08:31:10;;;;;;;8.73;4.45;;;;;;;32.52;57.28;100924.41;1756725;78;20984;-87
2021/07/28 08:33:37;;;;;;;8.45;4.67;;;;;;;32.48;57.18;100930.02;1753777;80;21016;-87
2021/07/28 08:36:05;;;;;;;11.35;4.40;;;;;;;32.46;57.84;100925.20;1755028;80;20988;-86
2021/07/28 08:38:33;;;;;;;5.75;4.50;;;;;;;32.44;57.74;100922.60;1763826;80;21834;-87
2021/07/28 08:43:34;;;;;;;14.50;4.72;;;;;;;32.35;58.49;100936.78;1712935;80;20994;-89
2021/07/28 08:46:05;;;;;;;11.83;4.70;;;;;;;32.37;58.74;100926.34;1756604;79;21038;-87
2021/07/28 08:48:34;;;;;;;11.45;4.72;;;;;;;32.38;58.06;100922.52;1751938;80;21075;-89
2021/07/28 08:51:07;;;;;;;11.75;4.70;;;;;;;32.35;57.37;100928.45;1751140;80;21553;-89
2021/07/28 08:53:36;;;;;;;10.75;5.80;;;;;;;32.37;57.78;100937.44;1746639;80;21147;-87
2021/07/28 08:56:03;;;;;;;8.50;5.17;;;;;;;32.41;57.89;100928.55;1751265;80;21393;-88
2021/07/28 08:58:30;;;;;;;18.15;4.97;;;;;;;32.46;57.50;100927.97;1729343;81;21221;-88
2021/07/28 09:00:58;;;;;;;9.88;4.80;;;;;;;32.46;56.66;100936.30;1730873;79;21092;-88
2021/07/28 09:03:25;;;;;;;12.88;5.20;;;;;;;32.43;56.54;100928.36;1731124;80;21624;-87
2021/07/28 09:06:01;;;;;;;9.45;4.80;;;;;;;32.39;56.67;100939.52;1733474;81;21085;-89
2021/07/28 09:08:35;;;;;;;12.25;5.30;;;;;;;32.37;57.11;100933.28;1724077;81;21026;-89
2021/07/28 09:11:05;;;;;;;11.65;5.30;;;;;;;32.43;56.94;100926.44;1724196;80;21112;-87
2021/07/28 09:13:42;;;;;;;14.05;4.92;;;;;;;32.46;56.79;100935.41;1728251;81;21421;-88
2021/07/28 09:16:18;;;;;;;10.50;4.60;;;;;;;32.40;56.22;100942.08;1730362;81;21086;-88
2021/07/28 09:18:51;;;;;;;7.85;4.70;;;;;;;32.29;56.25;100943.41;1748266;80;21494;-89
2021/07/28 09:21:28;;;;;;;9.18;5.15;;;;;;;32.21;56.31;100944.91;1754352;79;21077;-87
2021/07/28 09:24:15;;;;;;;9.50;4.95;;;;;;;32.17;56.58;100933.88;1746507;79;20991;-88
2021/07/28 09:26:50;;;;;;;10.05;4.42;;;;;;;32.24;56.84;100940.36;1743238;80;21137;-88
2021/07/28 09:29:19;;;;;;;6.83;4.47;;;;;;;32.32;56.37;100930.20;1738693;80;21135;-86
2021/07/28 09:31:50;;;;;;;7.05;4.20;;;;;;;32.26;55.94;100929.93;1762080;79;21124;-87
2021/07/28 09:34:25;;;;;;;7.58;4.25;;;;;;;32.16;55.66;100936.28;1760499;79;21564;-88
2021/07/28 09:37:13;;;;;;;19.15;4.45;;;;;;;32.05;55.77;100932.63;1763778;79;21111;-87
2021/07/28 09:39:46;;;;;;;10.55;4.70;;;;;;;31.95;56.11;100931.02;1758931;80;21051;-86
2021/07/28 09:42:20;;;;;;;10.30;4.25;;;;;;;31.87;55.39;100920.01;1742833;80;21044;-85
2021/07/28 09:44:48;;;;;;;9.00;4.40;;;;;;;31.73;55.19;100921.19;1744177;80;21550;-87
2021/07/28 09:47:23;;;;;;;6.47;4.53;;;;;;;31.59;55.73;100919.25;1757867;80;20873;-89
2021/07/28 09:50:04;;;;;;;8.10;5.17;;;;;;;31.50;56.25;100921.23;1749975;79;21081;-88
2021/07/28 09:52:34;;;;;;;5.83;4.40;;;;;;;31.42;56.75;100913.86;1717952;79;21067;-88
2021/07/28 09:55:30;;;;;;;9.73;4.62;;;;;;;31.42;56.47;100919.41;1735883;80;20952;-88
2021/07/28 09:57:58;;;;;;;7.03;4.37;;;;;;;31.43;55.93;100923.89;1730722;80;21992;-86
2021/07/28 10:00:30;;;;;;;9.10;4.08;;;;;;;31.40;55.94;100921.50;1759173;80;21503;-88
2021/07/28 10:03:00;;;;;;;11.97;4.28;;;;;;;31.38;55.77;100908.37;1729638;80;21588;-88
2021/07/28 10:05:27;;;;;;;9.98;4.15;;;;;;;31.39;54.52;100907.32;1740591;80;21325;-87
2021/07/28 10:07:58;;;;;;;8.68;4.40;;;;;;;31.40;54.13;100909.04;1742488;80;21031;-86
2021/07/28 10:10:25;;;;;;;12.25;4.53;;;;;;;31.40;54.00;100906.27;1763249;79;21956;-87
2021/07/28 10:12:52;;;;;;;12.58;4.25;;;;;;;31.38;53.00;100905.59;1779296;79;21265;-88
2021/07/28 10:15:24;;;;;;;11.00;4.10;;;;;;;31.35;52.67;100897.67;1740335;80;21048;-87
2021/07/28 10:17:50;;;;;;;9.93;4.00;;;;;;;31.28;52.32;100897.55;1759705;79;21100;-87
2021/07/28 10:20:17;;;;;;;10.55;3.83;;;;;;;31.25;52.43;100902.59;1743250;80;21178;-88
2021/07/28 10:22:44;;;;;;;11.30;4.08;;;;;;;31.24;52.01;100892.57;1741353;80;21115;-87
2021/07/28 10:25:14;;;;;;;6.70;3.70;;;;;;;31.23;51.71;100896.39;1746307;80;21097;-86
2021/07/28 10:27:48;;;;;;;6.28;3.45;;;;;;;31.24;51.72;100895.34;1733607;80;21153;-87
2021/07/28 10:30:15;;;;;;;;;;;;;;;31.23;51.83;100890.85;1770688;78;21086;-87
2021/07/28 10:32:43;;;;;;;12.28;3.85;;;;;;;31.21;51.90;100895.21;1769101;79;20204;-87
2021/07/28 10:35:29;;;;;;;12.13;3.98;;;;;;;31.20;52.22;100882.41;1770544;79;21091;-86
2021/07/28 10:38:03;;;;;;;12.78;4.08;;;;;;;31.15;52.65;100885.70;1758689;80;21035;-88
2021/07/28 10:40:34;;;;;;;10.35;4.37;;;;;;;31.12;53.03;100881.05;1760453;80;21027;-89
2021/07/28 10:43:01;;;;;;;8.58;4.42;;;;;;;31.03;53.03;100865.58;1759961;79;20984;-88
2021/07/28 10:45:57;;;;;;;9.98;3.90;;;;;;;30.98;53.05;100873.92;1758006;79;21470;-88
2021/07/28 10:48:53;;;;;;;9.63;4.55;;;;;;;30.92;52.64;100869.65;1754789;79;21681;-88
2021/07/28 10:51:52;;;;;;;13.83;4.20;;;;;;;30.85;53.43;100859.33;1752211;81;21051;-85
2021/07/28 10:54:21;;;;;;;14.98;4.35;;;;;;;30.84;54.00;100862.27;1757724;81;21028;-85
2021/07/28 10:57:08;;;;;;;10.85;4.35;;;;;;;30.78;54.45;100857.48;1734891;81;20996;-88
2021/07/28 10:59:41;;;;;;;12.25;4.60;;;;;;;30.72;54.77;100870.14;1759196;79;21327;-89
2021/07/28 11:02:10;;;;;;;9.53;4.30;;;;;;;30.67;55.20;100869.84;1773673;80;20977;-86
2021/07/28 11:04:38;;;;;;;6.72;4.35;;;;;;;30.62;55.66;100862.08;1762623;81;21505;-84
2021/07/28 11:14:32;;;;;;;6.75;4.22;;;;;;;30.76;55.40;100843.81;1739100;82;21576;-84
2021/07/28 11:17:24;;;;;;;8.70;4.17;;;;;;;30.76;55.17;100845.74;1739333;82;21117;-84
2021/07/28 11:19:51;;;;;;;7.87;4.05;;;;;;;30.75;54.92;100845.41;1755520;79;21271;-84
2021/07/28 11:22:26;;;;;;;7.85;4.20;;;;;;;30.77;55.42;100844.69;1784018;79;21052;-84
2021/07/28 11:24:58;;;;;;;9.83;3.95;;;;;;;30.81;55.26;100844.11;1762110;80;21057;-84
2021/07/28 11:27:25;;;;;;;10.45;4.37;;;;;;;30.87;54.87;100833.70;1770969;80;21556;-84
2021/07/28 11:30:12;;;;;;;6.80;4.10;;;;;;;30.89;54.95;100836.81;1774870;80;21101;-84
2021/07/28 11:33:12;;;;;;;9.58;4.22;;;;;;;30.87;55.36;100839.24;1778121;80;21025;-83
2021/07/28 11:35:43;;;;;;;9.90;4.35;;;;;;;30.83;55.25;100830.10;1738931;80;20992;-86
2021/07/28 11:42:19;;;;;;;8.43;3.90;;;;;;;30.77;55.54;100831.70;1803656;79;21484;-86
2021/07/28 11:44:46;;;;;;;6.65;3.85;;;;;;;30.75;55.48;100829.64;1803932;79;21099;-85
2021/07/28 11:47:23;;;;;;;8.18;3.90;;;;;;;30.74;55.41;100823.77;1803941;79;21084;-86
2021/07/28 11:50:05;;;;;;;10.60;4.17;;;;;;;30.70;55.27;100819.66;1803546;79;20953;-88
2021/07/28 11:52:46;;;;;;;15.38;4.30;;;;;;;30.65;55.67;100812.45;1783270;79;21024;-87
2021/07/28 11:55:24;;;;;;;11.03;4.35;;;;;;;30.61;55.55;100817.95;1786274;79;21067;-90